Time;durP1;ratioP1;P1;durP2;ratioP2;P2;SDS_P1;SDS_P2;PMS_P1;PMS_P2;Temp;Humidity;BMP_temperature;BMP_pressure;BME280_temperature;BME280_humidity;BME280_pressure;Samples;Min_cycle;Max_cycle;Signal;HPM_P1;HPM_P2
2022/01/28 00:01:17;;;;;;;232.30;130.50;;;;;21.40;101609.00;;;;2067073;28;20234;-59
2022/01/28 00:03:21;;;;;;;222.48;125.28;;;;;21.40;101606.00;;;;2076429;28;21133;-60
2022/01/28 00:04:21;;;;;;;206.97;116.60;;;;;21.40;101608.00;;;;2062201;28;20217;-59
2022/01/28 00:05:22;;;;;;;200.63;118.93;;;;;21.40;101612.00;;;;2067863;28;20721;-59
2022/01/28 00:06:23;;;;;;;196.05;114.00;;;;;21.40;101618.00;;;;2067484;28;20224;-60
2022/01/28 00:07:23;;;;;;;180.43;107.60;;;;;21.40;101614.00;;;;2067487;28;20584;-60
2022/01/28 00:08:23;;;;;;;188.73;111.47;;;;;21.40;101617.00;;;;2067753;28;20647;-60
2022/01/28 00:09:25;;;;;;;177.77;105.90;;;;;21.40;101624.00;;;;2068395;28;20218;-59
2022/01/28 00:10:26;;;;;;;182.30;106.80;;;;;21.40;101620.00;;;;2068115;28;20211;-60
2022/01/28 00:11:26;;;;;;;174.27;102.80;;;;;21.40;101631.00;;;;2068500;28;20285;-60
2022/01/28 00:12:29;;;;;;;177.00;108.13;;;;;21.40;101630.00;;;;2068721;28;20206;-59
2022/01/28 00:14:53;;;;;;;173.47;103.07;;;;;21.30;101633.00;;;;2067911;28;20856;-59
2022/01/28 00:17:25;;;;;;;170.03;98.97;;;;;21.30;101651.00;;;;2063367;28;20241;-59
2022/01/28 00:36:31;;;;;;;137.40;79.25;;;;;21.30;101649.00;;;;2068407;28;20300;-60
2022/01/28 00:37:13;;;;;;;115.70;63.33;;;;;21.20;101676.00;;;;2069229;28;20214;-60
2022/01/28 00:38:08;;;;;;;112.75;65.07;;;;;21.20;101677.00;;;;2066563;28;20586;-59
2022/01/28 00:39:08;;;;;;;114.15;62.63;;;;;21.20;101681.00;;;;2064885;28;20218;-59
2022/01/28 00:40:09;;;;;;;109.73;62.17;;;;;21.20;101698.00;;;;2067393;28;20214;-59
2022/01/28 00:41:10;;;;;;;109.13;61.97;;;;;21.20;101675.00;;;;2067276;28;20215;-59
2022/01/28 00:42:10;;;;;;;103.17;62.60;;;;;21.20;101675.00;;;;2065309;28;20470;-59
2022/01/28 00:43:10;;;;;;;102.30;59.00;;;;;21.20;101686.00;;;;2068465;28;20578;-59
2022/01/28 00:44:11;;;;;;;91.53;57.47;;;;;21.20;101682.00;;;;2068993;28;20279;-59
2022/01/28 00:45:11;;;;;;;106.00;61.93;;;;;21.20;101694.00;;;;2068974;28;20215;-59
2022/01/28 00:46:11;;;;;;;98.77;57.53;;;;;21.20;101690.00;;;;2069029;28;20207;-59
2022/01/28 00:47:12;;;;;;;94.80;55.60;;;;;21.20;101696.00;;;;2068157;28;20678;-58
2022/01/28 00:48:12;;;;;;;98.70;55.70;;;;;21.20;101689.00;;;;2067676;28;20597;-59
2022/01/28 00:49:12;;;;;;;93.57;53.77;;;;;21.20;101684.00;;;;2067900;28;20217;-59
2022/01/28 00:50:14;;;;;;;92.27;55.67;;;;;21.20;101682.00;;;;2067835;28;20264;-60
2022/01/28 00:51:14;;;;;;;84.50;54.40;;;;;21.20;101681.00;;;;2063313;28;20226;-59
2022/01/28 00:52:14;;;;;;;90.07;53.37;;;;;21.20;101690.00;;;;2067240;28;20260;-59
2022/01/28 00:53:15;;;;;;;88.77;52.13;;;;;21.20;101689.00;;;;2065869;28;20226;-59
2022/01/28 00:54:17;;;;;;;89.73;52.53;;;;;21.20;101689.00;;;;2068272;28;20241;-59
2022/01/28 00:55:17;;;;;;;86.28;51.35;;;;;21.10;101694.00;;;;2064816;28;20666;-59
2022/01/28 00:56:18;;;;;;;80.63;48.53;;;;;21.20;101692.00;;;;2068309;28;20210;-59
2022/01/28 00:57:18;;;;;;;79.53;46.90;;;;;21.20;101686.00;;;;2067505;28;20213;-59
2022/01/28 00:58:18;;;;;;;80.13;48.50;;;;;21.10;101692.00;;;;2067891;28;20241;-59
2022/01/28 00:59:19;;;;;;;82.03;48.50;;;;;21.20;101683.00;;;;2068505;28;20214;-59
2022/01/28 01:00:19;;;;;;;79.33;48.77;;;;;21.10;101681.00;;;;2068517;28;20250;-59
2022/01/28 01:01:19;;;;;;;73.37;46.03;;;;;21.20;101690.00;;;;2068623;28;20249;-59
2022/01/28 01:02:20;;;;;;;75.17;46.33;;;;;21.10;101691.00;;;;2065073;28;20222;-59
2022/01/28 01:03:20;;;;;;;70.00;45.50;;;;;21.10;101697.00;;;;2067342;28;20288;-60
2022/01/28 01:04:20;;;;;;;70.70;44.13;;;;;21.10;101692.00;;;;2067804;28;20697;-60
2022/01/28 01:05:22;;;;;;;74.37;45.57;;;;;21.10;101700.00;;;;2067765;28;20214;-59
2022/01/28 01:06:23;;;;;;;67.53;42.60;;;;;21.10;101704.00;;;;2066988;28;20230;-59
2022/01/28 01:07:23;;;;;;;70.50;42.60;;;;;21.10;101709.00;;;;2064471;28;20215;-59
2022/01/28 01:08:23;;;;;;;66.47;41.97;;;;;21.10;101699.00;;;;2068534;28;20219;-59
2022/01/28 01:09:24;;;;;;;64.37;41.77;;;;;21.10;101707.00;;;;2068795;28;20215;-59
2022/01/28 01:10:25;;;;;;;72.70;42.97;;;;;21.10;101713.00;;;;2068827;28;20213;-60
2022/01/28 01:11:27;;;;;;;60.75;39.53;;;;;21.10;101703.00;;;;2067997;28;20217;-59
2022/01/28 01:12:29;;;;;;;67.80;43.33;;;;;21.10;101714.00;;;;2067578;28;20218;-59
2022/01/28 01:13:30;;;;;;;64.63;39.42;;;;;21.10;101729.00;;;;2066797;28;20218;-59
2022/01/28 01:14:30;;;;;;;58.80;37.43;;;;;21.10;101731.00;;;;2067160;28;20272;-59
2022/01/28 01:15:36;;;;;;;58.63;38.33;;;;;21.10;101728.00;;;;2068650;28;20222;-59
2022/01/28 01:21:30;;;;;;;54.53;34.88;;;;;21.00;101712.00;;;;2066920;28;20221;-59
2022/01/28 01:22:37;;;;;;;50.80;33.33;;;;;21.10;101715.00;;;;2064926;28;20300;-59
2022/01/28 01:23:40;;;;;;;56.03;33.85;;;;;21.10;101721.00;;;;2068056;28;20911;-60
2022/01/28 01:24:49;;;;;;;53.53;33.92;;;;;21.00;101706.00;;;;2068296;28;20215;-60
2022/01/28 01:26:51;;;;;;;46.73;32.07;;;;;21.00;101713.00;;;;2068134;28;20268;-59
2022/01/28 01:27:55;;;;;;;44.90;30.27;;;;;21.00;101705.00;;;;2065525;28;20226;-60
2022/01/28 01:28:55;;;;;;;51.03;32.95;;;;;21.00;101723.00;;;;2068120;28;20350;-60
2022/01/28 01:29:55;;;;;;;52.00;32.10;;;;;21.00;101714.00;;;;2068669;28;20262;-60
2022/01/28 01:30:57;;;;;;;47.20;30.93;;;;;21.00;101722.00;;;;2068676;28;20238;-59
2022/01/28 01:32:03;;;;;;;44.83;29.42;;;;;21.00;101721.00;;;;2068767;28;20245;-60
2022/01/28 01:33:03;;;;;;;47.05;29.33;;;;;21.00;101722.00;;;;2067051;28;20222;-59
2022/01/28 01:34:18;;;;;;;49.87;30.10;;;;;21.00;101718.00;;;;2067946;28;20216;-59
2022/01/28 01:35:19;;;;;;;49.33;29.95;;;;;21.00;101719.00;;;;2068382;28;20241;-59
2022/01/28 01:36:19;;;;;;;47.70;30.20;;;;;21.00;101715.00;;;;2068631;28;20219;-59
2022/01/28 01:37:20;;;;;;;44.07;29.00;;;;;21.00;101717.00;;;;2066441;28;20214;-59
2022/01/28 01:38:25;;;;;;;46.90;28.73;;;;;21.00;101716.00;;;;2068451;28;20202;-59
2022/01/28 01:39:30;;;;;;;43.63;27.70;;;;;21.00;101723.00;;;;2063934;28;20253;-59
2022/01/28 01:40:36;;;;;;;43.97;27.45;;;;;21.00;101717.00;;;;2067102;28;20225;-59
2022/01/28 01:41:53;;;;;;;44.67;27.40;;;;;21.00;101717.00;;;;2060676;28;20214;-59
2022/01/28 01:43:06;;;;;;;45.15;28.15;;;;;21.00;101723.00;;;;2065501;28;20678;-59
2022/01/28 01:44:26;;;;;;;43.85;26.98;;;;;21.00;101723.00;;;;2064618;28;20342;-59
2022/01/28 01:52:54;;;;;;;36.40;22.30;;;;;21.00;101731.00;;;;2065707;28;20242;-59
2022/01/28 01:53:55;;;;;;;39.20;24.77;;;;;21.00;101736.00;;;;2068612;28;20653;-59
2022/01/28 01:54:55;;;;;;;34.90;23.60;;;;;20.90;101731.00;;;;2059763;28;20610;-59
2022/01/28 01:55:56;;;;;;;34.20;22.53;;;;;20.90;101734.00;;;;2059940;28;20443;-59
2022/01/28 01:56:56;;;;;;;34.83;22.55;;;;;20.90;101734.00;;;;2067188;28;20222;-59
2022/01/28 01:57:57;;;;;;;36.13;22.33;;;;;20.90;101733.00;;;;2063535;28;20226;-59
2022/01/28 01:58:57;;;;;;;34.33;21.50;;;;;20.90;101735.00;;;;2066924;28;20216;-59
2022/01/28 01:59:57;;;;;;;34.40;20.20;;;;;20.90;101730.00;;;;2067224;28;20245;-59
2022/01/28 02:00:58;;;;;;;32.80;19.70;;;;;20.90;101738.00;;;;2059029;28;20270;-59
2022/01/28 02:01:59;;;;;;;31.92;20.20;;;;;20.90;101740.00;;;;2059876;28;20219;-59
2022/01/28 02:02:59;;;;;;;33.30;20.53;;;;;20.90;101736.00;;;;2066219;28;20235;-60
2022/01/28 02:04:00;;;;;;;32.07;19.70;;;;;20.90;101734.00;;;;2068070;28;20221;-59
2022/01/28 02:05:00;;;;;;;31.50;19.30;;;;;20.90;101726.00;;;;2067190;28;20380;-59
2022/01/28 02:06:00;;;;;;;34.07;20.60;;;;;20.90;101737.00;;;;2066984;28;20268;-59
2022/01/28 02:07:01;;;;;;;30.70;18.50;;;;;20.90;101743.00;;;;2065215;28;20214;-59
2022/01/28 02:08:06;;;;;;;29.90;19.23;;;;;20.90;101738.00;;;;2066316;28;20219;-59
2022/01/28 02:09:07;;;;;;;28.00;18.92;;;;;20.90;101735.00;;;;2062836;28;20217;-59
2022/01/28 02:10:08;;;;;;;31.75;19.23;;;;;20.90;101752.00;;;;2066660;28;20242;-59
2022/01/28 02:11:08;;;;;;;27.57;17.63;;;;;20.90;101758.00;;;;2069518;28;20210;-59
2022/01/28 02:12:09;;;;;;;28.53;17.70;;;;;20.90;101764.00;;;;2067941;28;20225;-59
2022/01/28 02:13:09;;;;;;;31.77;18.83;;;;;20.90;101768.00;;;;2065820;28;20218;-60
2022/01/28 02:14:10;;;;;;;25.53;16.90;;;;;20.90;101769.00;;;;2067705;28;20452;-59
2022/01/28 02:15:10;;;;;;;28.63;17.50;;;;;20.90;101769.00;;;;2067576;28;20706;-59
2022/01/28 02:16:10;;;;;;;28.60;16.97;;;;;20.90;101778.00;;;;2067606;28;20253;-59
2022/01/28 02:17:11;;;;;;;26.57;17.00;;;;;20.90;101765.00;;;;2068067;28;20265;-59
2022/01/28 02:18:11;;;;;;;25.33;16.50;;;;;20.90;101776.00;;;;2068399;28;20211;-59
2022/01/28 02:19:11;;;;;;;27.33;17.30;;;;;20.90;101765.00;;;;2068473;28;20233;-59
2022/01/28 02:20:20;;;;;;;26.60;16.87;;;;;20.80;101767.00;;;;2068084;28;20210;-59
2022/01/28 02:21:21;;;;;;;28.65;16.15;;;;;20.90;101776.00;;;;2064745;28;20210;-59
2022/01/28 02:22:21;;;;;;;24.27;15.80;;;;;20.90;101776.00;;;;2065392;28;20578;-59
2022/01/28 02:23:23;;;;;;;23.47;15.27;;;;;20.90;101774.00;;;;2067713;28;20281;-59
2022/01/28 02:24:30;;;;;;;24.05;14.75;;;;;20.80;101781.00;;;;2067916;28;20373;-59
2022/01/28 02:25:31;;;;;;;24.23;15.90;;;;;20.90;101781.00;;;;2068490;28;20215;-59
2022/01/28 02:26:32;;;;;;;21.50;14.57;;;;;20.80;101781.00;;;;2068477;28;20238;-59
2022/01/28 02:27:32;;;;;;;24.20;15.13;;;;;20.80;101787.00;;;;2063949;28;20288;-60
2022/01/28 02:28:37;;;;;;;22.80;14.80;;;;;20.80;101801.00;;;;2066168;28;20209;-59
2022/01/28 02:29:38;;;;;;;21.85;14.30;;;;;20.80;101799.00;;;;2067073;28;20251;-59
2022/01/28 02:30:38;;;;;;;22.13;13.80;;;;;20.80;101797.00;;;;2066251;28;20207;-59
2022/01/28 02:31:38;;;;;;;21.47;13.90;;;;;20.80;101793.00;;;;2067417;28;20202;-59
2022/01/28 02:32:39;;;;;;;24.17;14.17;;;;;20.80;101791.00;;;;2064738;28;20218;-60
2022/01/28 02:33:39;;;;;;;23.20;14.40;;;;;20.80;101802.00;;;;2067212;28;20272;-59
2022/01/28 02:34:40;;;;;;;19.63;13.13;;;;;20.80;101794.00;;;;2067983;28;20213;-59
2022/01/28 02:35:42;;;;;;;18.55;12.50;;;;;20.80;101792.00;;;;2062990;28;20216;-59
2022/01/28 02:36:42;;;;;;;22.77;14.48;;;;;20.80;101791.00;;;;2066246;28;20214;-59
2022/01/28 02:37:42;;;;;;;20.23;12.47;;;;;20.80;101806.00;;;;2061071;28;20257;-59
2022/01/28 02:38:43;;;;;;;19.47;12.70;;;;;20.80;101804.00;;;;2074482;28;20211;-59
2022/01/28 02:39:43;;;;;;;19.80;12.20;;;;;20.80;101816.00;;;;2071730;28;20210;-59
2022/01/28 02:40:51;;;;;;;22.00;13.43;;;;;20.80;101809.00;;;;2067888;28;20317;-59
2022/01/28 02:41:59;;;;;;;20.05;12.70;;;;;20.80;101802.00;;;;2067893;28;20249;-60
2022/01/28 02:43:05;;;;;;;17.67;12.05;;;;;20.80;101794.00;;;;2064449;28;20210;-59
2022/01/28 02:44:17;;;;;;;16.73;11.45;;;;;20.80;101787.00;;;;2067516;28;21258;-59
2022/01/28 02:45:27;;;;;;;18.52;12.60;;;;;20.80;101787.00;;;;2063379;28;20248;-59
2022/01/28 02:46:30;;;;;;;19.75;12.27;;;;;20.80;101802.00;;;;2068043;28;20214;-60
2022/01/28 02:47:37;;;;;;;18.70;12.00;;;;;20.60;101797.00;;;;2065489;28;20223;-59
2022/01/28 02:48:40;;;;;;;19.90;11.18;;;;;20.70;101797.00;;;;2068253;28;20214;-59
2022/01/28 02:49:42;;;;;;;18.60;12.05;;;;;20.70;101798.00;;;;2066688;28;20600;-59
2022/01/28 02:51:05;;;;;;;16.90;10.77;;;;;20.80;101796.00;;;;2066508;28;20222;-59
2022/01/28 02:52:07;;;;;;;18.05;10.93;;;;;20.70;101790.00;;;;2065588;28;20245;-59
2022/01/28 02:53:19;;;;;;;19.00;11.23;;;;;20.70;101798.00;;;;2061525;28;20253;-59
2022/01/28 02:54:19;;;;;;;18.42;10.73;;;;;20.70;101807.00;;;;2058079;28;20302;-59
2022/01/28 02:55:20;;;;;;;16.60;10.60;;;;;20.70;101812.00;;;;2066825;28;20211;-59
2022/01/28 02:56:24;;;;;;;16.03;10.43;;;;;20.70;101808.00;;;;2067856;28;20214;-59
2022/01/28 02:57:26;;;;;;;16.52;10.82;;;;;20.70;101809.00;;;;2065100;28;20372;-59
2022/01/28 02:58:27;;;;;;;15.30;9.63;;;;;20.70;101810.00;;;;2068113;28;20214;-59
2022/01/28 02:59:27;;;;;;;18.00;10.30;;;;;20.70;101814.00;;;;2068041;28;20264;-59
2022/01/28 03:00:27;;;;;;;17.90;10.63;;;;;20.70;101826.00;;;;2067133;28;20214;-59
2022/01/28 03:01:28;;;;;;;15.47;9.83;;;;;20.70;101826.00;;;;2067347;28;20302;-59
2022/01/28 03:02:28;;;;;;;17.97;10.20;;;;;20.70;101827.00;;;;2058991;28;20713;-59
2022/01/28 03:03:28;;;;;;;13.77;8.60;;;;;20.70;101830.00;;;;2062934;28;20215;-59
2022/01/28 03:05:35;;;;;;;14.40;10.00;;;;;20.70;101829.00;;;;2066939;28;20629;-59
2022/01/28 03:06:35;;;;;;;15.83;9.10;;;;;20.70;101830.00;;;;2066841;28;20254;-60
2022/01/28 03:07:35;;;;;;;15.40;9.53;;;;;20.70;101833.00;;;;2064738;28;20239;-59
2022/01/28 03:08:36;;;;;;;15.30;9.20;;;;;20.70;101829.00;;;;2067528;28;20210;-59
2022/01/28 03:12:14;;;;;;;14.35;8.00;;;;;20.70;101835.00;;;;2063133;28;21043;-59
2022/01/28 03:13:28;;;;;;;17.10;9.48;;;;;20.70;101830.00;;;;2066595;28;20256;-59
2022/01/28 03:14:54;;;;;;;16.80;9.50;;;;;20.70;101835.00;;;;2063635;28;20713;-60
2022/01/28 03:16:05;;;;;;;13.13;8.63;;;;;20.70;101841.00;;;;2064550;28;20233;-58
2022/01/28 03:17:10;;;;;;;14.35;8.63;;;;;20.70;101840.00;;;;2059359;28;20218;-59
2022/01/28 03:18:15;;;;;;;13.05;8.23;;;;;20.70;101836.00;;;;2065104;28;20651;-59
2022/01/28 03:19:18;;;;;;;12.25;7.60;;;;;20.70;101839.00;;;;2066478;28;20582;-59
2022/01/28 03:22:33;;;;;;;13.30;8.45;;;;;20.60;101835.00;;;;2061300;28;20273;-59
2022/01/28 03:23:36;;;;;;;12.93;7.20;;;;;20.60;101837.00;;;;2067896;28;20274;-60
2022/01/28 03:24:38;;;;;;;12.73;7.50;;;;;20.60;101850.00;;;;2068013;28;20260;-59
2022/01/28 03:25:43;;;;;;;14.13;7.97;;;;;20.60;101850.00;;;;2067226;28;20214;-59
2022/01/28 03:26:43;;;;;;;11.57;7.13;;;;;20.60;101850.00;;;;2067301;28;20220;-60
2022/01/28 03:28:44;;;;;;;11.73;7.03;;;;;20.60;101842.00;;;;2067459;28;20226;-59
2022/01/28 03:29:44;;;;;;;15.23;7.33;;;;;20.60;101855.00;;;;2068155;28;20230;-60
2022/01/28 03:30:44;;;;;;;14.30;7.77;;;;;20.60;101845.00;;;;2067141;28;20206;-59
2022/01/28 03:31:45;;;;;;;9.97;6.53;;;;;20.60;101852.00;;;;2067345;28;20214;-59
2022/01/28 03:32:45;;;;;;;11.60;6.87;;;;;20.60;101858.00;;;;2063457;28;20217;-60
2022/01/28 03:33:45;;;;;;;10.90;7.07;;;;;20.60;101858.00;;;;2067161;28;20592;-59
2022/01/28 03:34:46;;;;;;;11.10;6.47;;;;;20.60;101855.00;;;;2067145;28;20221;-59
2022/01/28 03:35:46;;;;;;;10.47;6.90;;;;;20.60;101860.00;;;;2067072;28;20218;-59
2022/01/28 03:36:47;;;;;;;12.20;6.90;;;;;20.60;101854.00;;;;2066603;28;20226;-60
2022/01/28 03:37:47;;;;;;;10.77;6.47;;;;;20.60;101858.00;;;;2067542;28;20233;-59
2022/01/28 03:38:48;;;;;;;11.53;6.60;;;;;20.60;101864.00;;;;2065416;28;20679;-59
2022/01/28 03:39:49;;;;;;;14.25;6.85;;;;;20.60;101855.00;;;;2066601;28;20218;-59
2022/01/28 03:40:51;;;;;;;10.63;6.17;;;;;20.60;101859.00;;;;2066467;28;20253;-59
2022/01/28 03:41:52;;;;;;;11.13;5.40;;;;;20.60;101864.00;;;;2054853;28;20218;-59
2022/01/28 03:42:52;;;;;;;9.57;6.07;;;;;20.60;101859.00;;;;2066463;28;20701;-59
2022/01/28 03:43:58;;;;;;;13.13;6.87;;;;;20.60;101864.00;;;;2057082;28;20697;-60
2022/01/28 03:44:58;;;;;;;12.93;6.53;;;;;20.60;101872.00;;;;2065613;28;20222;-59
2022/01/28 03:45:59;;;;;;;11.47;6.20;;;;;20.60;101879.00;;;;2066588;28;20609;-60
2022/01/28 03:46:59;;;;;;;10.63;5.93;;;;;20.60;101876.00;;;;2067679;28;20599;-59
2022/01/28 03:47:59;;;;;;;9.60;5.47;;;;;20.60;101870.00;;;;2063557;28;21006;-59
2022/01/28 03:49:00;;;;;;;8.57;5.37;;;;;20.60;101877.00;;;;2067506;28;20237;-59
2022/01/28 03:50:00;;;;;;;12.17;6.07;;;;;20.60;101886.00;;;;2067013;28;20261;-59
2022/01/28 03:51:00;;;;;;;10.93;6.13;;;;;20.60;101882.00;;;;2066906;28;20706;-59
2022/01/28 03:52:01;;;;;;;9.10;5.63;;;;;20.60;101876.00;;;;2067133;28;20558;-59
2022/01/28 03:53:01;;;;;;;9.60;5.97;;;;;20.60;101886.00;;;;2058620;28;20758;-59
2022/01/28 03:54:02;;;;;;;9.20;5.63;;;;;20.60;101880.00;;;;2074955;28;20669;-60
2022/01/28 03:55:03;;;;;;;9.70;5.90;;;;;20.60;101882.00;;;;2059774;28;20822;-60
2022/01/28 03:56:03;;;;;;;8.63;5.70;;;;;20.60;101890.00;;;;2065635;28;20215;-59
2022/01/28 03:57:06;;;;;;;8.50;5.60;;;;;20.50;101891.00;;;;2065965;28;20223;-60
2022/01/28 03:58:07;;;;;;;9.93;5.53;;;;;20.60;101885.00;;;;2066658;28;20222;-59
2022/01/28 03:59:07;;;;;;;9.47;5.57;;;;;20.60;101883.00;;;;2067653;28;20207;-60
2022/01/28 04:00:08;;;;;;;10.97;5.50;;;;;20.50;101891.00;;;;2067860;28;20221;-60
2022/01/28 04:01:17;;;;;;;10.07;4.93;;;;;20.50;101895.00;;;;2067405;28;20238;-59
2022/01/28 04:02:24;;;;;;;12.63;5.80;;;;;20.60;101896.00;;;;2066173;28;20445;-59
2022/01/28 04:03:40;;;;;;;7.10;4.68;;;;;20.50;101901.00;;;;2063455;28;20563;-60
2022/01/28 04:05:41;;;;;;;9.45;5.00;;;;;20.50;101903.00;;;;2067529;28;20695;-60
2022/01/28 04:11:31;;;;;;;7.90;4.82;;;;;20.50;101919.00;;;;2064663;28;20242;-59
2022/01/28 04:12:39;;;;;;;9.25;4.97;;;;;20.50;101924.00;;;;2063423;28;20690;-59
2022/01/28 04:13:47;;;;;;;7.50;4.38;;;;;20.50;101921.00;;;;2065096;28;20204;-59
2022/01/28 04:15:22;;;;;;;13.20;5.13;;;;;20.50;101924.00;;;;2063066;28;20226;-59
2022/01/28 04:16:31;;;;;;;8.27;4.70;;;;;20.50;101926.00;;;;2063013;28;20206;-60
2022/01/28 04:17:31;;;;;;;6.70;4.15;;;;;20.50;101927.00;;;;2063908;28;20222;-60
2022/01/28 04:18:32;;;;;;;8.80;4.60;;;;;20.50;101939.00;;;;2064478;28;20689;-60
2022/01/28 04:19:33;;;;;;;8.83;4.97;;;;;20.50;101920.00;;;;2057555;28;20215;-59
2022/01/28 04:20:33;;;;;;;8.57;5.07;;;;;20.50;101924.00;;;;2057841;28;20231;-60
2022/01/28 04:21:34;;;;;;;10.80;4.57;;;;;20.50;101929.00;;;;2067251;28;20215;-60
2022/01/28 04:22:34;;;;;;;8.83;4.30;;;;;20.50;101932.00;;;;2067519;28;20266;-59
2022/01/28 04:23:34;;;;;;;9.20;4.63;;;;;20.50;101936.00;;;;2067294;28;20214;-59
2022/01/28 04:24:35;;;;;;;8.50;4.70;;;;;20.50;101942.00;;;;2064603;28;20206;-60
2022/01/28 04:25:35;;;;;;;6.80;3.97;;;;;20.50;101941.00;;;;2062785;28;20245;-59
2022/01/28 04:26:35;;;;;;;8.93;4.83;;;;;20.50;101941.00;;;;2067142;28;20211;-60
2022/01/28 04:27:36;;;;;;;7.73;4.80;;;;;20.50;101940.00;;;;2066578;28;20214;-59
2022/01/28 04:28:36;;;;;;;8.63;4.30;;;;;20.50;101941.00;;;;2066805;28;20203;-59
2022/01/28 04:29:36;;;;;;;7.77;3.93;;;;;20.50;101938.00;;;;2067106;28;20222;-60
2022/01/28 04:30:37;;;;;;;9.10;4.50;;;;;20.50;101931.00;;;;2067200;28;20235;-60
2022/01/28 04:31:42;;;;;;;7.07;3.97;;;;;20.50;101946.00;;;;2067321;28;20273;-59
2022/01/28 04:32:42;;;;;;;8.15;4.50;;;;;20.40;101943.00;;;;2064303;28;20215;-59
2022/01/28 04:33:43;;;;;;;8.73;4.57;;;;;20.40;101936.00;;;;2057249;28;20551;-60
2022/01/28 04:34:43;;;;;;;7.50;4.50;;;;;20.50;101943.00;;;;2066027;28;20214;-59
2022/01/28 04:35:47;;;;;;;7.40;3.63;;;;;20.50;101941.00;;;;2072718;28;20719;-60
2022/01/28 04:39:09;;;;;;;7.25;3.88;;;;;20.40;101923.00;;;;2066659;28;20218;-59
2022/01/28 04:40:14;;;;;;;5.72;3.45;;;;;20.40;101951.00;;;;2067341;28;20594;-60
2022/01/28 04:41:29;;;;;;;6.97;4.13;;;;;20.40;101944.00;;;;2066985;28;20301;-59
2022/01/28 04:42:57;;;;;;;6.50;3.90;;;;;20.40;101950.00;;;;2066933;28;20211;-59
2022/01/28 04:44:11;;;;;;;8.45;3.90;;;;;20.40;101957.00;;;;2066257;28;20293;-60
2022/01/28 04:48:48;;;;;;;6.40;3.50;;;;;20.40;101965.00;;;;2064799;28;20677;-59
2022/01/28 04:53:48;;;;;;;5.95;3.47;;;;;20.40;101982.00;;;;2067425;28;20596;-59
2022/01/28 04:56:22;;;;;;;8.85;3.35;;;;;20.40;101979.00;;;;2068481;28;20374;-59
2022/01/28 04:58:44;;;;;;;6.07;3.50;;;;;20.40;101979.00;;;;2061758;28;20221;-59
2022/01/28 05:00:03;;;;;;;7.25;3.63;;;;;20.40;101984.00;;;;2055449;28;20218;-59
2022/01/28 05:12:21;;;;;;;6.80;3.47;;;;;20.30;101965.00;;;;2037411;29;20213;-59
2022/01/28 05:13:44;;;;;;;6.30;3.28;;;;;20.40;101969.00;;;;2067150;28;20219;-59
2022/01/28 05:15:37;;;;;;;6.95;3.17;;;;;20.30;101965.00;;;;2064456;28;20233;-59
2022/01/28 05:27:06;;;;;;;5.97;2.60;;;;;20.30;101996.00;;;;2068309;28;20253;-59
2022/01/28 05:28:11;;;;;;;6.78;3.03;;;;;20.30;102000.00;;;;2063412;28;20261;-59
2022/01/28 05:29:11;;;;;;;5.35;2.90;;;;;20.30;101997.00;;;;2067769;28;20224;-60
2022/01/28 05:30:11;;;;;;;6.27;2.83;;;;;20.30;101995.00;;;;2067994;28;20215;-60
2022/01/28 05:31:12;;;;;;;5.50;3.20;;;;;20.30;101993.00;;;;2068102;28;20285;-60
2022/01/28 05:32:12;;;;;;;6.50;3.10;;;;;20.30;101992.00;;;;2068866;28;20668;-60
2022/01/28 05:33:13;;;;;;;5.13;2.67;;;;;20.30;102002.00;;;;2068807;28;20585;-60
2022/01/28 05:34:14;;;;;;;5.60;2.67;;;;;20.30;102007.00;;;;2068215;28;20794;-59
2022/01/28 05:35:14;;;;;;;4.60;2.50;;;;;20.30;102011.00;;;;2067946;28;20214;-60
2022/01/28 05:36:15;;;;;;;5.73;2.70;;;;;20.30;102011.00;;;;2067265;28;20210;-60
2022/01/28 05:37:15;;;;;;;4.93;2.63;;;;;20.30;102006.00;;;;2067375;28;20218;-59
2022/01/28 05:38:15;;;;;;;6.00;3.00;;;;;20.30;102006.00;;;;2068065;28;20243;-60
2022/01/28 05:39:16;;;;;;;6.00;2.80;;;;;20.30;102011.00;;;;2067691;28;20577;-60
2022/01/28 05:40:16;;;;;;;4.97;2.60;;;;;20.30;102005.00;;;;2068337;28;20600;-60
2022/01/28 05:41:17;;;;;;;5.00;2.53;;;;;20.30;102005.00;;;;2067759;28;20584;-60
2022/01/28 05:42:17;;;;;;;7.07;2.97;;;;;20.30;102001.00;;;;2068778;28;20673;-60
2022/01/28 05:43:17;;;;;;;5.20;2.87;;;;;20.30;102009.00;;;;2068759;28;21002;-60
2022/01/28 05:44:21;;;;;;;5.67;2.60;;;;;20.30;102017.00;;;;2067938;28;20697;-60
2022/01/28 05:45:21;;;;;;;6.20;2.30;;;;;20.30;102017.00;;;;2067927;28;20221;-60
2022/01/28 05:46:21;;;;;;;6.20;2.70;;;;;20.30;102014.00;;;;2067922;28;20233;-60
2022/01/28 05:47:24;;;;;;;4.97;2.53;;;;;20.30;102018.00;;;;2067216;28;20199;-60
2022/01/28 05:48:24;;;;;;;6.00;3.15;;;;;20.30;102015.00;;;;2063984;28;20269;-60
2022/01/28 05:49:24;;;;;;;6.30;2.63;;;;;20.20;102023.00;;;;2067249;28;20210;-60
2022/01/28 05:50:25;;;;;;;5.70;2.93;;;;;20.20;102022.00;;;;2066977;28;20206;-60
2022/01/28 05:51:25;;;;;;;6.43;2.53;;;;;20.20;102015.00;;;;2067520;28;20646;-60
2022/01/28 05:52:25;;;;;;;4.83;2.80;;;;;20.30;102018.00;;;;2068704;28;20682;-59
2022/01/28 05:53:26;;;;;;;4.40;2.63;;;;;20.20;102022.00;;;;2067063;28;20226;-59
2022/01/28 05:54:26;;;;;;;5.37;2.37;;;;;20.20;102027.00;;;;2068151;28;20214;-59
2022/01/28 05:55:26;;;;;;;4.57;2.50;;;;;20.20;102019.00;;;;2064448;28;20663;-60
2022/01/28 05:56:27;;;;;;;5.43;2.67;;;;;20.20;102022.00;;;;2068019;28;20242;-60
2022/01/28 05:57:27;;;;;;;3.47;2.10;;;;;20.20;102021.00;;;;2067823;28;20214;-60
2022/01/28 05:58:28;;;;;;;6.63;2.83;;;;;20.20;102034.00;;;;2068212;28;20282;-59
2022/01/28 05:59:30;;;;;;;4.57;2.40;;;;;20.30;102026.00;;;;2066896;28;20257;-60
2022/01/28 06:00:30;;;;;;;5.65;2.25;;;;;20.20;101981.00;;;;2066914;28;20276;-60
2022/01/28 06:01:30;;;;;;;7.67;3.10;;;;;20.20;102029.00;;;;2067239;28;20312;-59
2022/01/28 06:02:31;;;;;;;6.43;2.30;;;;;20.20;102024.00;;;;2067634;28;20793;-59
2022/01/28 06:03:31;;;;;;;4.40;2.10;;;;;20.20;102022.00;;;;2067501;28;20214;-59
2022/01/28 06:04:31;;;;;;;4.70;2.57;;;;;20.30;102031.00;;;;2062947;28;20608;-60
2022/01/28 06:05:32;;;;;;;4.10;2.20;;;;;20.30;102034.00;;;;2075608;28;20206;-59
2022/01/28 06:06:33;;;;;;;4.10;2.05;;;;;20.30;102038.00;;;;2070166;28;20609;-59
2022/01/28 06:07:33;;;;;;;3.90;2.40;;;;;20.30;102045.00;;;;2067880;28;20297;-60
2022/01/28 06:08:35;;;;;;;4.70;2.22;;;;;20.30;102044.00;;;;2067218;28;20595;-60
2022/01/28 06:09:36;;;;;;;4.17;2.10;;;;;20.30;102045.00;;;;2067219;28;20248;-60
2022/01/28 06:10:36;;;;;;;4.80;2.10;;;;;20.30;102041.00;;;;2065650;28;20461;-59
2022/01/28 06:11:37;;;;;;;4.83;2.17;;;;;20.40;102054.00;;;;2066300;28;20312;-60
2022/01/28 06:12:41;;;;;;;4.40;2.47;;;;;20.40;102057.00;;;;2067710;28;20210;-60
2022/01/28 06:13:42;;;;;;;5.20;2.45;;;;;20.40;102058.00;;;;2067801;28;20239;-59
2022/01/28 06:14:43;;;;;;;4.73;2.40;;;;;20.40;102058.00;;;;2067875;28;20637;-59
2022/01/28 06:15:43;;;;;;;4.30;2.40;;;;;20.40;102053.00;;;;2068211;28;20218;-60
2022/01/28 06:16:43;;;;;;;3.53;1.90;;;;;20.40;102069.00;;;;2066599;28;20234;-59
2022/01/28 06:17:44;;;;;;;4.03;2.23;;;;;20.40;102065.00;;;;2061056;28;20288;-60
2022/01/28 06:18:44;;;;;;;4.10;2.00;;;;;20.40;102065.00;;;;2062395;28;20214;-59
2022/01/28 06:19:44;;;;;;;6.37;2.20;;;;;20.40;102067.00;;;;2067116;28;20250;-59
2022/01/28 06:20:45;;;;;;;4.20;1.83;;;;;20.40;102069.00;;;;2067365;28;20219;-60
2022/01/28 06:21:45;;;;;;;4.23;1.77;;;;;20.40;102060.00;;;;2067478;28;20242;-60
2022/01/28 06:22:46;;;;;;;6.00;2.47;;;;;20.40;102063.00;;;;2059061;28;20227;-60
2022/01/28 06:23:46;;;;;;;4.10;1.97;;;;;20.40;102063.00;;;;2059083;28;20668;-60
2022/01/28 06:24:46;;;;;;;5.03;2.40;;;;;20.40;102062.00;;;;2067026;28;20245;-60
2022/01/28 06:25:48;;;;;;;3.77;2.20;;;;;20.40;102073.00;;;;2063414;28;20321;-60
2022/01/28 06:26:48;;;;;;;4.60;2.00;;;;;20.50;102076.00;;;;2064876;28;20725;-60